Flight Track Log - Related Links

Times and Time Zones

All times are in EDT time to prevent confusion due to time zone crossing. See the CSJ405 flight status page for this flight to view local times or setup timezone preferences in your user account.

Time Position Orientation Groundspeed Altitude Reporting Facility
EDT Latitude Longitude Course Direction KTS MPH feet Rate Location/Type
Tue 06:57:30 AM 42.7444 -73.8111 196° South 93 107 900  Level Boston Center
Tue 06:58:36 AM 42.7172 -73.8219 218° Southwest 103 119 2,200 1,134 Climbing Boston Center
Tue 06:59:37 AM 42.6939 -73.8469 205° Southwest 111 128 3,300 1,082 Climbing Boston Center
Tue 07:00:38 AM 42.6686 -73.8633 207° Southwest 108 124 4,400 1,041 Climbing Boston Center
Tue 07:01:38 AM 42.6414 -73.8825 211° Southwest 111 128 5,400 1,041 Climbing Boston Center
Tue 07:02:39 AM 42.6078 -73.9097 211° Southwest 120 138 6,500 1,039 Climbing Boston Center
Tue 07:03:45 AM 42.5781 -73.9344 204° Southwest 119 137 7,600 793 Climbing Boston Center
Tue 07:04:40 AM 42.5467 -73.9533 211° Southwest 130 150 8,100 259 Climbing Boston Center
Tue 07:05:41 AM 42.5131 -73.9808 211° Southwest 145 167 8,100  Level Boston Center
Tue 07:06:41 AM 42.4769 -74.0108 204° Southwest 149 171 8,100  Level Boston Center
Tue 07:07:39 AM 42.4372 -74.0353 206° Southwest 153 176 8,100 -49 Level Boston Center
Tue 07:08:43 AM 42.4014 -74.0594 211° Southwest 150 173 8,000 -50 Descending Boston Center
Tue 07:09:39 AM 42.3675 -74.0867 209° Southwest 153 176 8,000  Level Boston Center
Tue 07:10:39 AM 42.3317 -74.1139 208° Southwest 153 176 8,000  Level Boston Center
Tue 07:11:39 AM 42.2981 -74.1383 208° Southwest 159 183 8,000 -50 Level Boston Center
Tue 07:12:39 AM 42.2603 -74.1653 207° Southwest 154 177 7,900 -50 Descending Boston Center
Tue 07:13:39 AM 42.2244 -74.1894 207° Southwest 154 177 7,900  Level Boston Center
Tue 07:14:39 AM 42.1844 -74.2164 207° Southwest 159 183 7,900  Level Boston Center
Tue 07:15:39 AM 42.1528 -74.2381 203° Southwest 159 183 7,900  Level Boston Center
Tue 07:16:39 AM 42.1106 -74.2619 204° Southwest 152 175 7,900  Level Boston Center
Tue 07:17:39 AM 42.0750 -74.2833 203° Southwest 152 175 7,900 50 Level Boston Center
Tue 07:18:39 AM 42.0328 -74.3072 205° Southwest 152 175 8,000 50 Climbing Boston Center
Tue 07:19:39 AM 41.9992 -74.3286 206° Southwest 152 175 8,000  Level Boston Center
Tue 07:20:39 AM 41.9592 -74.3553 201° Southwest 152 175 8,000 -200 Level Boston Center
Tue 07:21:39 AM 41.9233 -74.3739 204° Southwest 152 175 7,600 -500 Descending Boston Center
Tue 07:22:39 AM 41.8792 -74.4003 205° Southwest 152 175 7,000 -350 Descending Boston Center
Tue 07:23:39 AM 41.8494 -74.4189 203° Southwest 147 169 6,900  Descending Boston Center
Tue 07:24:39 AM 41.8117 -74.4400 205° Southwest 142 163 7,000 50 Climbing Boston Center
Tue 07:25:39 AM 41.7822 -74.4586 205° Southwest 137 158 7,000  Level Boston Center
Tue 07:26:39 AM 41.7442 -74.4825 200° South 137 158 7,000  Level Boston Center
Tue 07:27:39 AM 41.7128 -74.4981 205° Southwest 137 158 7,000  Level Boston Center
Tue 07:28:39 AM 41.6747 -74.5219 206° Southwest 137 158 7,000 -100 Level Boston Center
Tue 07:29:39 AM 41.6431 -74.5431 192° South 137 158 6,800 -400 Descending Boston Center
Tue 07:30:39 AM 41.5992 -74.5556 188° South 143 165 6,200 -400 Descending Boston Center
Tue 07:31:39 AM 41.5614 -74.5625 187° South 151 174 6,000 -100 Descending Boston Center
Tue 07:32:39 AM 41.5197 -74.5694 189° South 151 174 6,000  Level Boston Center
Tue 07:33:39 AM 41.4861 -74.5767 189° South 145 167 6,000  Level Boston Center
Tue 07:34:39 AM 41.4422 -74.5864 197° South 145 167 6,000  Level Boston Center
Tue 07:36:48 AM 41.3667 -74.6167 194° South 138 159 6,000  Level New York TRACON
Tue 07:37:48 AM 41.3167 -74.6333 180° South 142 163 6,000  Level New York TRACON
Tue 07:38:42 AM 41.2833 -74.6333 201° Southwest 138 159 6,000 -474 Level New York TRACON
Tue 07:39:42 AM 41.2500 -74.6500 180° South 153 176 5,100 -950 Descending New York TRACON
Tue 07:40:42 AM 41.2000 -74.6500 143° Southeast 165 190 4,100 -550 Descending New York TRACON
Tue 07:41:42 AM 41.1667 -74.6167 114° Southeast 181 208 4,000 -211 Descending New York TRACON
Tue 07:42:36 AM 41.1500 -74.5667 108° East 181 208 3,700 -2,053 Descending New York TRACON
Tue 07:43:36 AM 41.1333 -74.5000 114° Southeast 185 213 100 -350 Descending New York TRACON
Tue 07:44:36 AM 41.1167 -74.4500 108° East 179 206 3,000 1,526 Climbing New York TRACON
Tue 07:45:30 AM 41.1000 -74.3833 114° Southeast 178 205 3,000  Level New York TRACON
Tue 07:46:30 AM 41.0833 -74.3333 124° Southeast 172 198 3,000  Level New York TRACON
Tue 07:47:30 AM 41.0500 -74.2667 114° Southeast 177 204 3,000 -200 Level New York TRACON
Tue 07:48:30 AM 41.0333 -74.2167 143° Southeast 181 208 2,600 -522 Descending New York TRACON
Tue 07:49:25 AM 41.0000 -74.1833 217° Southwest 147 169 2,000 -316 Descending New York TRACON
Tue 07:50:24 AM 40.9833 -74.2000 217° Southwest 126 145 2,000 -151 Level New York TRACON
Tue 07:51:24 AM 40.9500 -74.2333 201° Southwest 137 158 1,700 -421 Descending New York TRACON
Tue 07:52:18 AM 40.9167 -74.2500 201° Southwest 129 148 1,200 -556 Descending New York TRACON

Login

Don't have an account? Register now (free) for customized features, flight alerts, and more!